Time;durP1;ratioP1;P1;durP2;ratioP2;P2;SDS_P1;SDS_P2;PMS_P1;PMS_P2;Temp;Humidity;BMP_temperature;BMP_pressure;BME280_temperature;BME280_humidity;BME280_pressure;Samples;Min_cycle;Max_cycle;Signal;HPM_P1;HPM_P2
2023/05/23 00:02:07;;;;;;;26.80;13.93;;;14.00;99.90;;;;;;4934555;28;20819;-73
2023/05/23 00:04:35;;;;;;;27.80;13.57;;;14.00;99.90;;;;;;4949406;28;20276;-72
2023/05/23 00:07:02;;;;;;;29.98;13.18;;;14.00;99.90;;;;;;4962228;28;20579;-74
2023/05/23 00:09:28;;;;;;;27.33;13.93;;;14.00;99.90;;;;;;4953182;28;20062;-71
2023/05/23 00:11:54;;;;;;;27.20;14.45;;;13.90;99.90;;;;;;4950824;28;20043;-73
2023/05/23 00:14:20;;;;;;;31.52;14.20;;;13.90;99.90;;;;;;4948496;28;20035;-73
2023/05/23 00:16:48;;;;;;;28.20;13.65;;;13.90;99.90;;;;;;4947561;28;20496;-73
2023/05/23 00:19:14;;;;;;;22.83;13.30;;;13.80;99.90;;;;;;4954202;28;20078;-74
2023/05/23 00:21:47;;;;;;;26.63;13.07;;;13.80;99.90;;;;;;4946474;28;20566;-75
2023/05/23 00:24:17;;;;;;;21.65;12.85;;;13.80;99.90;;;;;;4950273;28;20133;-75
2023/05/23 00:26:44;;;;;;;27.58;12.00;;;13.80;99.90;;;;;;4945656;28;20125;-71
2023/05/23 00:29:15;;;;;;;18.05;11.82;;;13.80;99.90;;;;;;4919608;29;20044;-74
2023/05/23 00:31:45;;;;;;;21.92;10.80;;;13.80;99.90;;;;;;4947801;28;20059;-73
2023/05/23 00:34:12;;;;;;;19.30;11.50;;;13.80;99.90;;;;;;4950460;28;20077;-74
2023/05/23 00:36:42;;;;;;;22.70;11.05;;;13.80;99.90;;;;;;4946282;28;20518;-74
2023/05/23 00:39:08;;;;;;;21.02;12.15;;;13.80;99.90;;;;;;4952260;28;20468;-74
2023/05/23 00:41:37;;;;;;;21.92;11.93;;;13.70;99.90;;;;;;4947799;28;20081;-72
2023/05/23 00:44:04;;;;;;;22.63;11.63;;;13.70;99.90;;;;;;4946656;28;20496;-72
2023/05/23 00:46:30;;;;;;;20.23;10.00;;;13.70;99.90;;;;;;4947459;28;20046;-73
2023/05/23 00:48:56;;;;;;;18.55;9.63;;;13.70;99.90;;;;;;4946433;28;20476;-72
2023/05/23 00:51:23;;;;;;;21.33;9.88;;;13.60;99.90;;;;;;4947984;28;20039;-72
2023/05/23 00:53:49;;;;;;;17.67;8.82;;;13.80;99.90;;;;;;4950890;28;20057;-74
2023/05/23 00:56:15;;;;;;;18.55;8.68;;;13.60;99.90;;;;;;4952726;28;20039;-74
2023/05/23 00:58:41;;;;;;;16.17;8.13;;;13.60;99.90;;;;;;4947569;28;20519;-75
2023/05/23 01:01:07;;;;;;;19.92;7.93;;;13.60;99.90;;;;;;4947521;28;20050;-75
2023/05/23 01:03:33;;;;;;;19.65;8.02;;;13.60;99.90;;;;;;4944131;28;20046;-75
2023/05/23 01:05:58;;;;;;;24.13;7.85;;;13.60;99.90;;;;;;4944514;28;20043;-76
2023/05/23 01:08:24;;;;;;;21.08;7.60;;;13.60;99.90;;;;;;4965957;28;20046;-75
2023/05/23 01:10:51;;;;;;;24.90;8.50;;;13.60;99.90;;;;;;4948492;28;20047;-75
2023/05/23 01:13:29;;;;;;;19.58;8.57;;;13.60;99.90;;;;;;4947573;28;20047;-74
2023/05/23 01:16:21;;;;;;;28.77;8.43;;;13.60;99.90;;;;;;4950077;28;20055;-74
2023/05/23 01:19:01;;;;;;;;;;;13.50;99.90;;;;;;4942782;28;20427;-75
2023/05/23 01:21:27;;;;;;;31.77;10.40;;;13.50;99.90;;;;;;4958855;28;20029;-74
2023/05/23 01:24:27;;;;;;;25.33;9.00;;;13.50;99.90;;;;;;4962232;28;20055;-74
2023/05/23 01:26:52;;;;;;;25.55;9.23;;;13.40;99.90;;;;;;4947349;28;20054;-74
2023/05/23 01:29:33;;;;;;;24.05;9.38;;;13.40;99.90;;;;;;4949518;28;20047;-74
2023/05/23 01:32:01;;;;;;;28.02;10.00;;;13.40;99.90;;;;;;4957512;28;20087;-75
2023/05/23 01:34:29;;;;;;;21.92;9.18;;;13.30;99.90;;;;;;4945476;28;20826;-73
2023/05/23 01:36:55;;;;;;;26.70;9.75;;;13.20;99.90;;;;;;4947742;28;20050;-74
2023/05/23 01:39:24;;;;;;;23.77;11.35;;;13.20;99.90;;;;;;4934405;28;20039;-74
2023/05/23 01:41:51;;;;;;;25.65;9.68;;;13.20;99.90;;;;;;4946716;28;20579;-75
2023/05/23 01:44:17;;;;;;;30.95;11.50;;;13.20;99.90;;;;;;4945496;28;20151;-74
2023/05/23 01:46:44;;;;;;;24.83;10.73;;;13.10;99.90;;;;;;4944784;28;20102;-74
2023/05/23 01:49:12;;;;;;;28.42;10.82;;;13.00;99.90;;;;;;4947036;28;20043;-75
2023/05/23 01:51:42;;;;;;;23.95;10.73;;;13.00;99.90;;;;;;4949057;28;20047;-76
2023/05/23 01:54:08;;;;;;;27.63;10.88;;;13.10;99.90;;;;;;4935672;28;20054;-73
2023/05/23 01:56:37;;;;;;;24.58;10.23;;;12.90;99.90;;;;;;4948396;28;20065;-75
2023/05/23 01:59:03;;;;;;;27.33;10.38;;;12.90;99.90;;;;;;4936921;28;20404;-74
2023/05/23 02:01:29;;;;;;;31.98;10.98;;;12.90;99.90;;;;;;4946263;28;20047;-75
2023/05/23 02:03:55;;;;;;;28.85;10.00;;;12.90;99.90;;;;;;4950499;28;20053;-75
2023/05/23 02:06:21;;;;;;;22.98;8.95;;;12.90;99.90;;;;;;4943451;28;20413;-74
2023/05/23 02:08:46;;;;;;;22.58;8.38;;;12.80;99.90;;;;;;4951911;28;20138;-74
2023/05/23 02:11:12;;;;;;;27.38;8.90;;;12.80;99.90;;;;;;4952994;28;20049;-76
2023/05/23 02:13:41;;;;;;;24.17;8.48;;;12.80;99.90;;;;;;4962356;28;20090;-75
2023/05/23 02:16:07;;;;;;;28.60;8.75;;;12.80;99.90;;;;;;4947542;28;20051;-75
2023/05/23 02:18:32;;;;;;;24.95;8.25;;;12.80;99.90;;;;;;4962964;28;20393;-75
2023/05/23 02:20:58;;;;;;;30.75;7.95;;;12.80;99.90;;;;;;4946516;28;20580;-76
2023/05/23 02:23:24;;;;;;;30.77;8.52;;;12.70;99.90;;;;;;4948739;28;20058;-74
2023/05/23 02:25:49;;;;;;;24.90;8.07;;;12.70;99.90;;;;;;4945465;28;20451;-73
2023/05/23 02:28:15;;;;;;;24.60;8.57;;;12.70;99.90;;;;;;4947417;28;20039;-75
2023/05/23 02:30:41;;;;;;;26.40;7.55;;;12.70;99.90;;;;;;4944739;28;20054;-75
2023/05/23 02:33:07;;;;;;;20.70;7.25;;;12.70;99.90;;;;;;4946559;28;20474;-75
2023/05/23 02:35:33;;;;;;;26.48;7.50;;;12.70;99.90;;;;;;4960268;28;20050;-75
2023/05/23 02:37:59;;;;;;;29.27;8.13;;;12.60;99.90;;;;;;4950087;28;20566;-75
2023/05/23 02:40:25;;;;;;;28.75;7.60;;;12.60;99.90;;;;;;4945027;28;20214;-75
2023/05/23 02:42:50;;;;;;;19.77;7.25;;;12.60;99.90;;;;;;4948424;28;20385;-76
2023/05/23 02:45:17;;;;;;;24.38;7.15;;;12.60;99.90;;;;;;4945512;28;20043;-73
2023/05/23 02:47:42;;;;;;;24.88;7.57;;;12.60;99.90;;;;;;4944236;28;20061;-75
2023/05/23 02:50:09;;;;;;;22.52;7.18;;;12.60;99.90;;;;;;4947086;28;20043;-75
2023/05/23 02:52:35;;;;;;;23.02;7.40;;;12.50;99.90;;;;;;4936084;28;20035;-74
2023/05/23 02:55:00;;;;;;;27.38;9.00;;;12.50;99.90;;;;;;4950597;28;20182;-72
2023/05/23 02:57:26;;;;;;;37.25;8.80;;;12.50;99.90;;;;;;4951631;28;20163;-74
2023/05/23 02:59:52;;;;;;;23.75;7.85;;;12.50;99.90;;;;;;4950866;28;20086;-74
2023/05/23 03:02:18;;;;;;;30.70;8.60;;;12.50;99.90;;;;;;4948047;28;20042;-74
2023/05/23 03:04:43;;;;;;;25.73;8.00;;;12.50;99.90;;;;;;4949463;28;20051;-75
2023/05/23 03:07:11;;;;;;;29.02;7.72;;;12.50;99.90;;;;;;4953227;28;20074;-74
2023/05/23 03:09:36;;;;;;;19.70;7.07;;;12.40;99.90;;;;;;4950486;28;20047;-76
2023/05/23 03:12:03;;;;;;;21.15;7.53;;;12.40;99.90;;;;;;4952110;28;20050;-75
2023/05/23 03:14:29;;;;;;;19.77;7.40;;;12.40;99.90;;;;;;4966980;28;20082;-75
2023/05/23 03:16:55;;;;;;;19.33;7.03;;;12.40;99.90;;;;;;4949033;28;20410;-76
2023/05/23 03:19:20;;;;;;;27.75;8.50;;;12.40;99.90;;;;;;4950693;28;20043;-75
2023/05/23 03:21:46;;;;;;;20.58;6.55;;;12.40;99.90;;;;;;4948766;28;20069;-75
2023/05/23 03:24:12;;;;;;;21.50;6.53;;;12.40;99.90;;;;;;4946157;28;20067;-75
2023/05/23 03:26:38;;;;;;;17.17;5.93;;;12.40;99.90;;;;;;4947293;28;20075;-75
2023/05/23 03:29:06;;;;;;;18.75;6.00;;;12.40;99.90;;;;;;4961083;28;20786;-75
2023/05/23 03:31:32;;;;;;;19.15;5.97;;;12.40;99.90;;;;;;4961694;28;20054;-76
2023/05/23 03:33:58;;;;;;;22.20;5.80;;;12.40;99.90;;;;;;4950282;28;20047;-76
2023/05/23 03:36:24;;;;;;;21.83;5.90;;;12.40;99.90;;;;;;4949756;28;20042;-75
2023/05/23 03:38:52;;;;;;;17.75;5.47;;;12.40;99.90;;;;;;4948134;28;20046;-77
2023/05/23 03:41:18;;;;;;;19.67;5.43;;;12.40;99.90;;;;;;4949844;28;20050;-76
2023/05/23 03:43:43;;;;;;;20.33;5.57;;;12.40;99.90;;;;;;4948151;28;20506;-75
2023/05/23 03:46:09;;;;;;;16.33;5.38;;;12.30;99.90;;;;;;4947261;28;20051;-76
2023/05/23 03:48:35;;;;;;;17.40;5.10;;;12.30;99.90;;;;;;4951112;28;20054;-77
2023/05/23 03:51:01;;;;;;;16.17;4.63;;;12.30;99.90;;;;;;4946227;28;20051;-76
2023/05/23 03:53:27;;;;;;;21.48;6.50;;;12.30;99.90;;;;;;4932035;28;20055;-77
2023/05/23 03:55:52;;;;;;;17.52;4.68;;;12.30;99.90;;;;;;4950864;28;20094;-77
2023/05/23 03:58:19;;;;;;;20.13;5.88;;;12.20;99.90;;;;;;4947661;28;20508;-75
2023/05/23 04:00:46;;;;;;;17.65;4.65;;;12.20;99.90;;;;;;4962402;28;20079;-75
2023/05/23 04:03:14;;;;;;;23.95;5.97;;;12.20;99.90;;;;;;4935057;29;20059;-77
2023/05/23 04:05:40;;;;;;;20.42;4.68;;;12.20;99.90;;;;;;4945470;28;20059;-74
2023/05/23 04:08:07;;;;;;;20.40;5.72;;;12.20;99.90;;;;;;4950109;28;20414;-76
2023/05/23 04:10:32;;;;;;;20.92;5.22;;;12.10;99.90;;;;;;4948830;28;20047;-77
2023/05/23 04:12:58;;;;;;;27.13;7.30;;;12.20;99.90;;;;;;4960136;28;20880;-77
2023/05/23 04:15:24;;;;;;;22.13;5.03;;;12.10;99.90;;;;;;4943630;28;20171;-76
2023/05/23 04:17:50;;;;;;;25.98;4.75;;;12.10;99.90;;;;;;4948207;28;20126;-76
2023/05/23 04:20:16;;;;;;;23.20;5.22;;;12.50;99.90;;;;;;4946265;28;20132;-76
2023/05/23 04:22:42;;;;;;;16.73;4.57;;;12.10;99.90;;;;;;4940611;28;20130;-76
2023/05/23 04:25:08;;;;;;;18.80;4.40;;;12.10;99.90;;;;;;4942579;28;20074;-76
2023/05/23 04:27:34;;;;;;;16.17;4.57;;;12.10;99.90;;;;;;4944980;28;20059;-78
2023/05/23 04:30:00;;;;;;;18.77;4.50;;;12.10;99.90;;;;;;4927623;28;20477;-76
2023/05/23 04:32:26;;;;;;;22.75;4.68;;;12.10;99.90;;;;;;4940337;28;20629;-77
2023/05/23 04:34:52;;;;;;;18.25;5.28;;;12.10;99.90;;;;;;4944423;28;20081;-76
2023/05/23 04:37:21;;;;;;;22.10;5.45;;;12.10;99.90;;;;;;4946344;28;20031;-76
2023/05/23 04:39:47;;;;;;;19.67;5.40;;;12.00;99.90;;;;;;4941083;28;20531;-77
2023/05/23 04:42:13;;;;;;;22.08;5.95;;;12.00;99.90;;;;;;4936871;28;20627;-74
2023/05/23 04:44:39;;;;;;;28.13;6.72;;;12.00;99.90;;;;;;4939728;28;20034;-75
2023/05/23 04:47:07;;;;;;;19.73;6.32;;;12.00;99.90;;;;;;4942024;28;20054;-75
2023/05/23 04:49:35;;;;;;;25.77;7.40;;;11.90;99.90;;;;;;4921055;28;20119;-75
2023/05/23 04:52:01;;;;;;;23.75;6.93;;;11.90;99.90;;;;;;4941409;28;20054;-76
2023/05/23 04:54:26;;;;;;;20.73;7.05;;;11.90;99.90;;;;;;4945725;28;20153;-76
2023/05/23 04:56:52;;;;;;;24.63;6.70;;;11.80;99.90;;;;;;4952060;28;20058;-76
2023/05/23 04:59:18;;;;;;;24.23;6.90;;;11.80;99.90;;;;;;4926723;29;20035;-77
2023/05/23 05:01:44;;;;;;;19.55;6.15;;;11.80;99.90;;;;;;4943474;28;20556;-75
2023/05/23 05:04:09;;;;;;;23.00;6.50;;;11.80;99.90;;;;;;4944194;28;20042;-78
2023/05/23 05:06:35;;;;;;;24.30;6.22;;;11.70;99.90;;;;;;4945460;28;20496;-76
2023/05/23 05:09:01;;;;;;;20.27;5.90;;;11.70;99.90;;;;;;4944573;28;20051;-76
2023/05/23 05:11:27;;;;;;;17.17;5.43;;;11.70;99.90;;;;;;4942043;28;20043;-75
2023/05/23 05:13:53;;;;;;;17.38;5.85;;;11.60;99.90;;;;;;4947595;28;20051;-78
2023/05/23 05:16:18;;;;;;;22.45;6.60;;;11.60;99.90;;;;;;4944490;28;20051;-76
2023/05/23 05:18:44;;;;;;;22.55;5.63;;;11.60;99.90;;;;;;4946679;28;20054;-80
2023/05/23 05:21:10;;;;;;;18.17;5.88;;;11.60;99.90;;;;;;4949303;28;20046;-80
2023/05/23 05:23:36;;;;;;;14.82;5.85;;;11.50;99.90;;;;;;4944353;28;20051;-79
2023/05/23 05:26:02;;;;;;;23.23;5.80;;;11.50;99.90;;;;;;4943680;28;20058;-80
2023/05/23 05:28:27;;;;;;;20.70;5.07;;;11.40;99.90;;;;;;4942006;28;20534;-79
2023/05/23 05:30:53;;;;;;;18.35;6.05;;;11.40;99.90;;;;;;4939772;28;20066;-77
2023/05/23 05:33:27;;;;;;;19.90;6.53;;;11.40;99.90;;;;;;4943215;28;20102;-78
2023/05/23 05:35:52;;;;;;;17.77;5.95;;;11.40;99.90;;;;;;4945281;28;20050;-78
2023/05/23 05:38:18;;;;;;;18.80;5.30;;;11.60;99.90;;;;;;4944692;28;20793;-76
2023/05/23 05:40:44;;;;;;;20.08;5.57;;;11.30;99.90;;;;;;4945818;28;20071;-78
2023/05/23 05:43:10;;;;;;;16.48;5.70;;;11.50;99.90;;;;;;4961819;28;20612;-77
2023/05/23 05:45:35;;;;;;;16.17;5.88;;;11.40;99.90;;;;;;4945926;28;20079;-77
2023/05/23 05:48:01;;;;;;;13.98;4.78;;;11.30;99.90;;;;;;4951295;28;20109;-78
2023/05/23 05:50:27;;;;;;;16.63;5.55;;;11.30;99.90;;;;;;4924891;28;20053;-78
2023/05/23 05:52:53;;;;;;;20.80;4.57;;;11.40;99.90;;;;;;4947341;28;20054;-79
2023/05/23 05:55:19;;;;;;;16.85;4.68;;;11.30;99.90;;;;;;4938739;28;20050;-78
2023/05/23 05:57:44;;;;;;;19.10;4.75;;;11.30;99.90;;;;;;4936904;28;20043;-77
2023/05/23 06:00:13;;;;;;;16.63;3.90;;;11.30;99.90;;;;;;4940180;28;20051;-79
2023/05/23 06:02:42;;;;;;;13.40;4.15;;;11.30;99.90;;;;;;4926711;29;20629;-78
2023/05/23 06:05:15;;;;;;;19.80;4.40;;;11.20;99.90;;;;;;4940449;28;20039;-80
2023/05/23 06:07:41;;;;;;;16.60;4.18;;;11.20;99.90;;;;;;4939728;28;20051;-80
2023/05/23 06:10:08;;;;;;;13.32;4.40;;;11.20;99.90;;;;;;4944260;28;20538;-78
2023/05/23 06:12:36;;;;;;;17.38;4.22;;;11.20;99.90;;;;;;4944341;28;20082;-78
2023/05/23 06:15:02;;;;;;;13.73;3.92;;;11.20;99.90;;;;;;4939313;28;20161;-80
2023/05/23 06:17:28;;;;;;;18.23;4.50;;;11.30;99.90;;;;;;4943636;28;20050;-79
2023/05/23 06:19:54;;;;;;;17.67;5.20;;;11.20;99.90;;;;;;4954031;28;20047;-78
2023/05/23 06:22:20;;;;;;;22.35;4.85;;;11.30;99.90;;;;;;4933210;28;20063;-77
2023/05/23 06:24:45;;;;;;;21.90;4.55;;;11.20;99.90;;;;;;4936889;28;20051;-79
2023/05/23 06:27:11;;;;;;;18.52;4.47;;;11.60;99.90;;;;;;4950512;28;20459;-76
2023/05/23 06:29:38;;;;;;;17.83;3.90;;;11.30;99.90;;;;;;4946654;28;20065;-78
2023/05/23 06:32:05;;;;;;;15.77;3.88;;;11.20;99.90;;;;;;4945533;28;20199;-77
2023/05/23 06:34:30;;;;;;;23.85;4.28;;;11.30;99.90;;;;;;4944558;28;20085;-80
2023/05/23 06:36:56;;;;;;;24.15;4.18;;;11.30;99.90;;;;;;4943865;28;20807;-80
2023/05/23 06:39:22;;;;;;;21.70;3.65;;;11.30;99.90;;;;;;4958520;28;20097;-79
2023/05/23 06:41:48;;;;;;;21.02;3.90;;;11.60;99.90;;;;;;4957378;28;20055;-78
2023/05/23 06:44:14;;;;;;;26.58;4.88;;;11.40;99.90;;;;;;4946479;28;20066;-79
2023/05/23 06:46:44;;;;;;;22.63;4.40;;;11.40;99.90;;;;;;4927854;28;20062;-79
2023/05/23 06:49:09;;;;;;;23.88;4.10;;;11.40;99.90;;;;;;4945058;28;20130;-77
2023/05/23 06:51:35;;;;;;;25.55;3.90;;;11.40;99.90;;;;;;4934561;28;20165;-80
2023/05/23 06:54:01;;;;;;;21.05;4.07;;;11.40;99.90;;;;;;4942561;28;20055;-78
2023/05/23 06:56:27;;;;;;;23.48;4.10;;;11.40;99.90;;;;;;4942716;28;20073;-77
2023/05/23 06:58:52;;;;;;;27.13;4.53;;;11.50;99.90;;;;;;4947838;28;20350;-78
2023/05/23 07:01:18;;;;;;;23.70;4.03;;;11.50;99.90;;;;;;4957575;28;20094;-79
2023/05/23 07:03:44;;;;;;;27.13;4.55;;;11.50;99.90;;;;;;4938990;28;20125;-78
2023/05/23 07:06:11;;;;;;;20.50;4.22;;;11.50;99.90;;;;;;4938944;28;20039;-77
2023/05/23 07:08:37;;;;;;;24.17;3.65;;;11.50;99.90;;;;;;4929452;28;20051;-78
2023/05/23 07:11:03;;;;;;;30.90;4.68;;;11.50;99.90;;;;;;4940164;28;20046;-75
2023/05/23 07:13:29;;;;;;;17.17;2.88;;;11.50;99.90;;;;;;4939200;28;20047;-79
2023/05/23 07:15:55;;;;;;;15.63;3.53;;;11.50;99.90;;;;;;4939769;28;20049;-78
2023/05/23 07:18:22;;;;;;;19.25;3.63;;;11.50;99.90;;;;;;4944428;28;20428;-77
2023/05/23 07:20:47;;;;;;;21.67;4.03;;;11.50;99.90;;;;;;4935911;28;20049;-80
2023/05/23 07:23:14;;;;;;;17.02;4.32;;;11.50;99.90;;;;;;4924966;28;20512;-79
2023/05/23 07:25:41;;;;;;;21.02;4.45;;;11.50;99.90;;;;;;4943153;28;20519;-76
2023/05/23 07:28:07;;;;;;;22.63;3.80;;;11.50;99.90;;;;;;4951270;28;20605;-77
2023/05/23 07:30:33;;;;;;;18.70;3.75;;;11.80;99.90;;;;;;4938774;28;20043;-76
2023/05/23 07:32:59;;;;;;;21.65;3.50;;;11.50;99.90;;;;;;4938432;28;20492;-73
2023/05/23 07:35:25;;;;;;;20.92;3.70;;;11.50;99.90;;;;;;4944560;28;20318;-74
2023/05/23 07:37:52;;;;;;;26.52;4.43;;;11.50;99.90;;;;;;4943778;28;20085;-74
2023/05/23 07:40:18;;;;;;;16.52;3.10;;;11.50;99.90;;;;;;4945978;28;20043;-75
2023/05/23 07:42:43;;;;;;;19.40;3.25;;;11.50;99.90;;;;;;4929032;29;20054;-78
2023/05/23 07:45:10;;;;;;;14.70;3.03;;;11.70;99.90;;;;;;4950629;28;20036;-78
2023/05/23 07:47:35;;;;;;;20.38;4.10;;;11.80;99.90;;;;;;4937276;28;20044;-75
2023/05/23 07:50:01;;;;;;;19.42;3.55;;;11.70;99.90;;;;;;4942927;28;20046;-75
2023/05/23 07:52:30;;;;;;;23.17;4.03;;;11.80;99.90;;;;;;4940696;28;20138;-76
2023/05/23 07:54:57;;;;;;;25.75;3.80;;;11.80;99.90;;;;;;4944807;28;20428;-76
2023/05/23 07:57:25;;;;;;;20.23;4.22;;;11.80;99.90;;;;;;4928270;29;20137;-75
2023/05/23 07:59:52;;;;;;;19.77;3.72;;;11.80;99.90;;;;;;4943247;28;20056;-77
2023/05/23 08:02:18;;;;;;;23.50;4.07;;;12.20;99.90;;;;;;4942792;28;20058;-78
2023/05/23 08:04:45;;;;;;;17.42;3.28;;;11.90;99.90;;;;;;4930547;28;20047;-76
2023/05/23 08:07:11;;;;;;;20.90;3.60;;;11.90;99.90;;;;;;4942747;28;20062;-79
2023/05/23 08:09:39;;;;;;;20.08;3.53;;;12.00;99.90;;;;;;4945997;28;20047;-77
2023/05/23 08:12:06;;;;;;;24.42;4.35;;;12.00;99.90;;;;;;4941892;28;20071;-81
2023/05/23 08:14:31;;;;;;;20.13;3.40;;;12.00;99.90;;;;;;4920956;28;20051;-77
2023/05/23 08:16:57;;;;;;;24.50;3.97;;;12.00;99.90;;;;;;4938308;28;20055;-75
2023/05/23 08:19:23;;;;;;;29.58;5.60;;;12.10;99.90;;;;;;4941389;28;20050;-80
2023/05/23 08:21:48;;;;;;;22.55;3.97;;;12.10;99.90;;;;;;4926682;29;20047;-77
2023/05/23 08:24:14;;;;;;;23.60;5.07;;;12.20;99.90;;;;;;4934312;28;20517;-77
2023/05/23 08:26:40;;;;;;;18.42;3.78;;;12.10;99.90;;;;;;4941302;28;20050;-77
2023/05/23 08:29:08;;;;;;;23.80;3.83;;;12.20;99.90;;;;;;4927993;29;20101;-77
2023/05/23 08:31:34;;;;;;;16.48;3.83;;;12.50;99.90;;;;;;4941763;28;20137;-76
2023/05/23 08:34:00;;;;;;;22.48;4.05;;;12.30;99.90;;;;;;4937031;28;20115;-76
2023/05/23 08:36:26;;;;;;;21.75;4.50;;;12.40;99.90;;;;;;4934447;28;20071;-77
2023/05/23 08:38:52;;;;;;;22.30;4.57;;;12.50;99.90;;;;;;4939043;28;20078;-77
2023/05/23 08:41:22;;;;;;;24.42;3.67;;;12.60;99.90;;;;;;4938716;28;20051;-78
2023/05/23 08:43:48;;;;;;;17.63;3.35;;;12.70;99.90;;;;;;4938372;28;20393;-77
2023/05/23 08:46:15;;;;;;;25.50;4.63;;;12.80;99.90;;;;;;4938208;28;20048;-77
2023/05/23 08:48:53;;;;;;;22.33;4.28;;;12.90;99.90;;;;;;4953029;28;20047;-77
2023/05/23 08:51:22;;;;;;;26.35;4.22;;;12.90;99.90;;;;;;4941944;28;20071;-77
2023/05/23 08:53:49;;;;;;;21.40;3.78;;;13.00;99.90;;;;;;4938599;28;20495;-76
2023/05/23 08:56:15;;;;;;;20.67;3.95;;;13.00;99.90;;;;;;4938861;28;20052;-77
2023/05/23 08:58:42;;;;;;;17.67;3.35;;;12.90;99.90;;;;;;4941110;28;20067;-76
2023/05/23 09:01:09;;;;;;;23.58;3.97;;;12.90;99.90;;;;;;4939532;28;20047;-77
2023/05/23 09:03:36;;;;;;;21.45;3.90;;;13.10;99.90;;;;;;4927134;28;20035;-77
2023/05/23 09:06:09;;;;;;;24.55;4.03;;;13.10;99.90;;;;;;4938756;28;20525;-77
2023/05/23 09:08:36;;;;;;;20.15;4.05;;;13.10;99.90;;;;;;4941595;28;20070;-78
2023/05/23 09:11:03;;;;;;;17.10;3.45;;;13.10;99.90;;;;;;4941975;29;20050;-75
2023/05/23 09:13:33;;;;;;;20.38;3.50;;;13.10;99.90;;;;;;4944334;28;20055;-76
2023/05/23 09:15:58;;;;;;;21.73;3.83;;;13.10;99.90;;;;;;4943654;28;20363;-78
2023/05/23 09:18:44;;;;;;;23.65;4.85;;;13.00;99.90;;;;;;4940109;28;20118;-77
2023/05/23 09:21:12;;;;;;;21.45;4.10;;;13.20;99.90;;;;;;4940835;28;20048;-77
2023/05/23 09:23:39;;;;;;;19.92;3.80;;;13.30;99.90;;;;;;4926419;29;20051;-77
2023/05/23 09:26:10;;;;;;;20.73;4.38;;;13.40;99.90;;;;;;4942327;28;20047;-77
2023/05/23 09:28:37;;;;;;;26.38;4.43;;;13.50;99.90;;;;;;4942926;28;20195;-76
2023/05/23 09:31:08;;;;;;;18.10;3.50;;;13.40;99.90;;;;;;4922640;28;20054;-75
2023/05/23 09:33:49;;;;;;;21.48;3.72;;;13.30;99.90;;;;;;4938082;28;20114;-79
2023/05/23 09:36:16;;;;;;;19.65;3.38;;;13.30;99.90;;;;;;4939413;28;20050;-76
2023/05/23 09:38:44;;;;;;;19.10;3.50;;;13.30;99.90;;;;;;4938825;28;20043;-76
2023/05/23 09:41:13;;;;;;;18.20;3.17;;;13.30;99.90;;;;;;4940646;28;20085;-77
2023/05/23 09:43:48;;;;;;;20.67;3.67;;;13.30;99.90;;;;;;4939349;28;20050;-75
2023/05/23 09:46:14;;;;;;;20.80;4.72;;;13.20;99.90;;;;;;4943337;28;20507;-75
2023/05/23 09:48:45;;;;;;;19.85;4.03;;;13.20;99.90;;;;;;4940729;28;20043;-74
2023/05/23 09:51:10;;;;;;;22.17;3.55;;;13.30;99.90;;;;;;4941119;28;20734;-74
2023/05/23 09:53:36;;;;;;;27.67;4.55;;;13.30;99.90;;;;;;4953828;28;20039;-75
2023/05/23 09:56:03;;;;;;;20.98;4.05;;;13.30;99.90;;;;;;4939080;28;20047;-76
2023/05/23 09:58:30;;;;;;;22.17;3.55;;;13.30;99.90;;;;;;4939551;28;20058;-78
2023/05/23 10:00:59;;;;;;;17.73;3.65;;;13.30;99.90;;;;;;4922179;29;20051;-77
2023/05/23 10:03:35;;;;;;;22.75;4.47;;;13.20;99.90;;;;;;4941094;28;20508;-76
2023/05/23 10:06:18;;;;;;;22.60;3.67;;;13.20;99.90;;;;;;4937774;28;20107;-78
2023/05/23 10:08:49;;;;;;;20.27;3.92;;;13.30;99.90;;;;;;4941885;28;20059;-79
2023/05/23 10:11:15;;;;;;;22.65;3.30;;;13.20;99.90;;;;;;4926198;29;20409;-77
2023/05/23 10:13:46;;;;;;;20.08;3.63;;;13.10;99.90;;;;;;4941870;28;20145;-78
2023/05/23 10:16:47;;;;;;;19.40;3.47;;;13.30;99.90;;;;;;4941059;28;20495;-76
2023/05/23 10:19:24;;;;;;;20.50;4.13;;;13.30;99.90;;;;;;4947530;28;20110;-77
2023/05/23 10:21:58;;;;;;;23.02;4.72;;;13.30;99.90;;;;;;4940210;28;20830;-77
2023/05/23 10:24:26;;;;;;;16.85;3.65;;;13.30;99.90;;;;;;4936943;28;20564;-76
2023/05/23 10:26:54;;;;;;;19.73;3.58;;;13.20;99.90;;;;;;4938509;28;20090;-76
2023/05/23 10:29:21;;;;;;;17.45;3.60;;;13.20;99.90;;;;;;4959322;28;20036;-77
2023/05/23 10:31:48;;;;;;;15.05;3.22;;;13.20;99.90;;;;;;4941088;28;20671;-79
2023/05/23 10:34:35;;;;;;;13.45;2.80;;;13.20;99.90;;;;;;4934995;28;20039;-78
2023/05/23 10:37:05;;;;;;;15.07;2.97;;;13.10;99.90;;;;;;4926652;28;20094;-78
2023/05/23 10:39:58;;;;;;;19.25;3.63;;;13.10;99.90;;;;;;4920402;28;20146;-79
2023/05/23 10:42:39;;;;;;;19.95;3.53;;;13.20;99.90;;;;;;4939342;28;20055;-77
2023/05/23 10:45:17;;;;;;;18.45;3.08;;;13.20;99.90;;;;;;4934904;28;20078;-77
2023/05/23 10:47:43;;;;;;;20.52;3.28;;;13.40;99.90;;;;;;4937968;28;20048;-77
2023/05/23 10:50:13;;;;;;;23.67;4.85;;;13.30;99.90;;;;;;4939511;28;20888;-76
2023/05/23 10:52:40;;;;;;;22.98;3.75;;;13.20;99.90;;;;;;4940254;28;20051;-78
2023/05/23 10:55:18;;;;;;;25.83;5.00;;;13.20;99.90;;;;;;4939557;28;20078;-78
2023/05/23 10:57:44;;;;;;;23.63;3.90;;;13.20;99.90;;;;;;4940939;28;20097;-76
2023/05/23 11:00:17;;;;;;;23.13;3.88;;;13.10;99.90;;;;;;4938042;28;20412;-78
2023/05/23 11:02:54;;;;;;;22.08;3.40;;;13.10;99.90;;;;;;4940206;28;20062;-77
2023/05/23 11:05:23;;;;;;;20.08;3.25;;;13.00;99.90;;;;;;4937862;28;20593;-78
2023/05/23 11:08:10;;;;;;;24.83;3.95;;;13.00;99.90;;;;;;4924123;28;20771;-77
2023/05/23 11:10:51;;;;;;;18.75;3.60;;;13.00;99.90;;;;;;4942045;28;20097;-77
2023/05/23 11:13:21;;;;;;;19.83;3.40;;;13.10;99.90;;;;;;4943397;28;20079;-76
2023/05/23 11:15:48;;;;;;;21.13;3.63;;;13.10;99.90;;;;;;4937607;28;20057;-75
2023/05/23 11:18:26;;;;;;;11.85;2.90;;;13.10;99.90;;;;;;4949092;28;20042;-78
2023/05/23 11:20:53;;;;;;;18.05;3.28;;;13.10;99.90;;;;;;4943964;28;20494;-76
2023/05/23 11:23:20;;;;;;;18.95;3.28;;;13.30;99.90;;;;;;4942079;28;20047;-78
2023/05/23 11:25:52;;;;;;;23.65;5.13;;;13.30;99.90;;;;;;4943903;28;20714;-78
2023/05/23 11:28:18;;;;;;;22.33;3.63;;;13.40;99.90;;;;;;4940941;28;20504;-78
2023/05/23 11:30:48;;;;;;;16.15;3.53;;;13.50;99.90;;;;;;4943817;28;20137;-77
2023/05/23 11:33:15;;;;;;;18.33;3.95;;;13.40;99.90;;;;;;4944931;28;20039;-77
2023/05/23 11:35:50;;;;;;;21.52;3.72;;;13.50;99.90;;;;;;4944063;28;20543;-79
2023/05/23 11:38:16;;;;;;;19.95;3.72;;;13.50;99.90;;;;;;4958965;28;20055;-77
2023/05/23 11:40:44;;;;;;;18.08;3.20;;;13.60;99.90;;;;;;4940169;28;20066;-76
2023/05/23 11:43:12;;;;;;;17.23;2.95;;;13.50;99.90;;;;;;4948715;28;20065;-77
2023/05/23 11:45:39;;;;;;;21.85;3.95;;;13.40;99.90;;;;;;4949999;28;20043;-77
2023/05/23 11:48:10;;;;;;;12.75;3.10;;;13.40;99.90;;;;;;4933316;28;20044;-77
2023/05/23 11:51:02;;;;;;;16.70;3.35;;;13.40;99.90;;;;;;4956563;28;20088;-77
2023/05/23 11:53:29;;;;;;;14.70;3.03;;;13.40;99.90;;;;;;4960506;28;20063;-78
2023/05/23 11:55:58;;;;;;;16.95;3.00;;;13.50;99.90;;;;;;4944676;28;20531;-77
2023/05/23 11:58:34;;;;;;;16.80;3.00;;;13.50;99.90;;;;;;4944006;28;20043;-77
2023/05/23 12:01:05;;;;;;;17.13;3.15;;;13.50;99.90;;;;;;4960075;28;20102;-78
2023/05/23 12:03:31;;;;;;;14.25;3.15;;;13.60;99.90;;;;;;4944910;28;20047;-78
2023/05/23 12:05:58;;;;;;;11.50;2.50;;;13.60;99.90;;;;;;4930706;28;20146;-78
2023/05/23 12:08:26;;;;;;;15.50;2.80;;;13.60;99.90;;;;;;4940930;28;20051;-77
2023/05/23 12:11:01;;;;;;;17.30;3.35;;;13.50;99.90;;;;;;4944308;28;20090;-77
2023/05/23 12:13:28;;;;;;;17.38;3.20;;;13.50;99.90;;;;;;4923031;28;20058;-76
2023/05/23 12:16:02;;;;;;;15.48;3.30;;;13.50;99.90;;;;;;4941931;28;20276;-77
2023/05/23 12:18:29;;;;;;;18.35;3.38;;;13.30;99.90;;;;;;4949276;28;20051;-77
2023/05/23 12:21:00;;;;;;;15.98;3.00;;;13.60;99.90;;;;;;4944988;28;20051;-76
2023/05/23 12:23:27;;;;;;;16.38;2.97;;;13.60;99.90;;;;;;4929472;28;20055;-78
2023/05/23 12:25:54;;;;;;;17.50;3.42;;;13.60;99.90;;;;;;4942046;28;20102;-77
2023/05/23 12:28:20;;;;;;;17.10;3.53;;;13.60;99.90;;;;;;4940230;28;20087;-77
2023/05/23 12:30:47;;;;;;;13.75;2.63;;;13.70;99.90;;;;;;4940000;28;20423;-77
2023/05/23 12:33:13;;;;;;;14.57;2.53;;;13.60;99.90;;;;;;4941500;28;20052;-77
2023/05/23 12:35:43;;;;;;;12.80;2.55;;;13.50;99.90;;;;;;4938559;28;20378;-78
2023/05/23 12:38:13;;;;;;;14.57;2.55;;;13.50;99.90;;;;;;4941831;28;20122;-77
2023/05/23 12:40:39;;;;;;;18.42;3.45;;;13.40;99.90;;;;;;4940657;28;20043;-79